Boise, ID (83703)

2:20 PM MDT en Agosto 02, 2015 (GMT -0600)
Sunset | | Change Station
CLOSE
Current Station
Estación meteorológica personal
Location: Boise, ID
Altura: 2677 ft
Estaciones meteorológicas cercanas
Aviso en curso: Fire Weather Watch Aviso activo: Record Report

Alt 2677 ft 43.65 °N, 116.23 °W | Updated 3 minutes ago

Despejado
Despejado
96.8 ° F
Sensación térmica 95 ° F
N
1.7
Viento Variable Viento desde NNO

Hoy
Alta -- | Baja -- ° F
--% Posibilidad de precipitaciones
Ayer
Alta -- | Baja -- ° F
Precip. -- pul
6:34 AM 9:06 PM
Gibosa menguante, 92% visible
Presión 29.77 pul
Visibilidad 10.0 Millas
Nubes Despejado
Índice de calor 95 ° F
Punto de rocío 56 ° F
Humedad 26%
Precipitaciones 0.00 pul
Espesor de la nieve No disponible.
UV 11 de una escala de 12
Polen 6.20 de una escala de 12
Calidad del aire No disponible.
Flu Activity No disponible.
METAR KBOI 021953Z 27007KT 10SM CLR 36/06 A2988 RMK AO2 SLP080 T03560056

More Conditions Fewer Conditions

Presión 29.77 pul
Visibilidad 10.0 Millas
Nubes Despejado
Índice de calor 95 ° F
Punto de rocío 56 ° F
Humedad 26%
Precipitaciones 0.00 pul
Espesor de la nieve No disponible.
UV 11 de una escala de 12
Polen 6.20 de una escala de 12
Calidad del aire No disponible.
Flu Activity No disponible.
METAR KBOI 021953Z 27007KT 10SM CLR 36/06 A2988 RMK AO2 SLP080 T03560056

More Conditions Fewer Conditions

10-Day Weather Forecast

×

Almanac

Astronomía

Aug. 02, 2015 Salida Puesta
Hora real
Crepúsculo civil
Crepúsculo náutico
Crepúsculo astronómico
Luna
Horas de luz
Horas de luz
Tomorrow will be .
, % of the Moon is Illuminated

Extremos de hoy

Máximos del estado Bajos del estado

Community

WunderPhotos

Upload Photos

1,843,364 ¡fotos cargadas!

WunderBlogs® & News

Nearby

Calidad del aire

  Calidad del aire Índice AQ Contaminante
Not available.

Grosos de nieve

Estación Profundido Altura

Actividad de terremotos

Ciudad Distance Mag. Tiempo y dato
Magnitud mínima muestra es 2,5.

Temperaturas de aguas costeras

Lugar Temperatura

Stations

Estaciones meteorológicas cercanas

Ubicación de la estación Temp. Vientos helados Punto de rocío Humedad Viento Precip. Alt Actualizado Tipo
                   
Fire Weather Watch
Statement as of 9:10 AM PDT en Agosto 02, 2015

... Fire Weather Watch remains in effect from Monday morning
through Monday evening for lightning for northern Boise blm...
western Payette National Forest... Owyhee Mountains... southern
Highlands... Burns blm... Vale blm and Baker Valley... which are
fire weather zones 400... 401... 423... 426... 636... 637 and 646...

* thunderstorms... as an upper trough pushes north early Monday
morning expect thunderstorms to become scattered through the
morning.

* Outflow winds... wind gusts up to 40 mph are possible near
thunderstorms.

Precautionary/preparedness actions...

A Fire Weather Watch means that critical fire weather conditions
are forecast to occur. Listen for later forecasts and possible
red flag warnings.